aviador You're here:

KGMU Decoded Metar

GREENVILLE in SC, USA
Report Time2018-05-27 00:53:00
UTC Time2018-05-27 01:10:44
Flight Rules vfr VFR
Wind180° at 05 kt
W.Decomp.*RWY 19: 5.0 kt HW 0.4 kt LCW
RWY 10: 0.4 kt HW 5.0 kt RCW
W.Rank180° ranks 22
Current wind is below 180° avg. (6.0)
Visibility9999 m
Phenomena:N/A
Clouds:N/A
Expected CloudBase > 2,400 ft AGL from Temp-Dew spread
CeilingNone
Temp27°C (ISA +14)
Dew Point21°C (70% RH)
Heat Index28.9°C
QNH1014 hPa
Density Alt2,949 ft
Elevation1,033 ft
Report Wrong Elevation
Raw Report
METAR KGMU 270053Z 18005KT 10SM CLR 27/21 A2995 RMK AO2 LTG DSNT N
SLP132 T02670211=

Extra information for KGMU:More info

Metar Taf Metar & Taf Last 4 Metars F.Rules Stats Wind Profile Meteogram Temp Stats Airport Information Weather charts Add Link Nearby VenuesMetar ALERT Operation Metar Decoded Social comments

AIRNAV info for KGMU